createdAt,value
2022-08-30T00:01:05.357Z,50.85
2022-08-30T00:06:09.698Z,51.17
2022-08-30T00:11:14.484Z,51.13
2022-08-30T00:16:17.596Z,51.75
2022-08-30T00:21:19.722Z,52.32
2022-08-30T00:26:22.628Z,52.88
2022-08-30T00:31:24.550Z,53.60
2022-08-30T00:36:26.646Z,54.11
2022-08-30T00:41:37.445Z,55.13
2022-08-30T00:46:39.429Z,55.72
2022-08-30T00:52:01.928Z,55.21
2022-08-30T00:57:05.117Z,55.38
2022-08-30T01:02:07.547Z,55.66
2022-08-30T01:07:09.469Z,56.21
2022-08-30T01:12:11.843Z,56.45
2022-08-30T01:17:14.655Z,56.49
2022-08-30T01:22:45.354Z,56.55
2022-08-30T01:27:56.004Z,56.68
2022-08-30T01:33:01.275Z,56.14
2022-08-30T01:38:03.217Z,55.84
2022-08-30T01:43:05.741Z,56.39
2022-08-30T01:48:08.498Z,56.46
2022-08-30T01:53:13.053Z,56.74
2022-08-30T01:58:15.318Z,57.08
2022-08-30T02:03:17.518Z,57.36
2022-08-30T02:08:19.478Z,57.51
2022-08-30T02:13:21.388Z,57.75
2022-08-30T02:18:25.252Z,57.38
2022-08-30T02:23:27.969Z,57.23
2022-08-30T02:28:30.140Z,57.26
2022-08-30T02:33:32.199Z,56.67
2022-08-30T02:38:34.504Z,55.94
2022-08-30T02:43:36.389Z,56.13
2022-08-30T02:48:38.376Z,56.29
2022-08-30T02:53:42.493Z,56.58
2022-08-30T02:58:45.337Z,56.62
2022-08-30T03:03:47.327Z,56.60
2022-08-30T03:08:49.295Z,56.87
2022-08-30T03:13:51.359Z,57.12
2022-08-30T03:18:53.308Z,57.25
2022-08-30T03:23:55.148Z,57.16
2022-08-30T03:28:57.003Z,56.89
2022-08-30T03:33:58.942Z,56.46
2022-08-30T03:39:00.822Z,56.36
2022-08-30T03:44:04.355Z,56.35
2022-08-30T03:49:07.979Z,55.97
2022-08-30T03:54:10.134Z,55.95
2022-08-30T03:59:12.099Z,55.99
2022-08-30T04:04:18.657Z,56.08
2022-08-30T04:09:23.542Z,55.79
2022-08-30T04:14:25.418Z,55.50
2022-08-30T04:19:27.302Z,55.29
2022-08-30T04:24:29.242Z,55.13
2022-08-30T04:29:31.482Z,55.01
2022-08-30T04:34:33.386Z,54.96
2022-08-30T04:39:35.329Z,55.24
2022-08-30T04:44:37.363Z,55.44
2022-08-30T04:49:39.488Z,55.25
2022-08-30T04:54:41.419Z,55.41
2022-08-30T04:59:43.279Z,55.52
2022-08-30T05:05:03.985Z,55.98
2022-08-30T05:10:10.961Z,55.66
2022-08-30T05:15:13.678Z,55.75
2022-08-30T05:20:16.240Z,55.77
2022-08-30T05:25:20.774Z,55.96
2022-08-30T05:30:24.100Z,55.75
2022-08-30T05:35:26.091Z,55.94
2022-08-30T05:40:29.182Z,55.64
2022-08-30T05:45:31.285Z,55.67
2022-08-30T05:50:34.975Z,55.51
2022-08-30T05:55:41.522Z,55.49
2022-08-30T06:00:43.400Z,55.45
2022-08-30T06:10:55.244Z,55.25
2022-08-30T06:15:57.430Z,55.25
2022-08-30T06:20:59.387Z,55.00
2022-08-30T06:26:07.762Z,54.78
2022-08-30T06:31:12.461Z,54.68
2022-08-30T06:36:17.621Z,54.36
2022-08-30T06:41:22.502Z,54.19
2022-08-30T06:46:31.047Z,54.01
2022-08-30T06:51:37.111Z,53.98
2022-08-30T06:56:40.210Z,53.57
2022-08-30T07:01:44.381Z,53.47
2022-08-30T07:06:46.593Z,53.03
2022-08-30T07:11:48.664Z,52.53
2022-08-30T07:16:51.334Z,52.32
2022-08-30T07:21:54.135Z,51.95
2022-08-30T07:26:56.012Z,51.40
2022-08-30T07:31:57.906Z,51.04
2022-08-30T07:36:59.925Z,50.66
2022-08-30T07:42:02.259Z,49.95
2022-08-30T07:47:05.628Z,49.74
2022-08-30T07:52:07.661Z,49.08
2022-08-30T07:57:09.559Z,48.44
2022-08-30T08:02:11.455Z,47.75
2022-08-30T08:07:13.365Z,47.24
2022-08-30T08:12:15.350Z,46.64
2022-08-30T08:17:17.293Z,46.71
2022-08-30T08:22:21.553Z,46.22
2022-08-30T08:27:24.856Z,45.77
2022-08-30T08:32:26.763Z,45.83
2022-08-30T08:37:28.654Z,45.35
2022-08-30T08:42:54.778Z,45.04
2022-08-30T08:48:04.060Z,44.84
2022-08-30T08:53:46.651Z,44.63
2022-08-30T08:58:53.340Z,44.20
2022-08-30T09:03:57.399Z,43.73
2022-08-30T09:08:59.556Z,43.42
2022-08-30T09:14:01.459Z,43.39
2022-08-30T09:19:03.869Z,43.05
2022-08-30T09:24:08.759Z,42.83
2022-08-30T09:29:18.429Z,42.16
2022-08-30T09:34:23.959Z,42.06
2022-08-30T09:39:34.817Z,41.55
2022-08-30T09:44:38.227Z,41.20
2022-08-30T09:49:45.650Z,40.76
2022-08-30T09:55:21.352Z,40.29
2022-08-30T10:00:29.025Z,39.69
2022-08-30T10:05:33.565Z,39.38
2022-08-30T10:10:46.798Z,39.04
2022-08-30T10:15:58.693Z,38.75
2022-08-30T10:21:00.535Z,38.65
2022-08-30T10:26:14.653Z,38.14
2022-08-30T10:31:29.611Z,37.55
2022-08-30T10:36:33.669Z,38.44
2022-08-30T10:41:44.689Z,37.77
2022-08-30T10:47:22.953Z,37.75
2022-08-30T10:52:44.381Z,37.80
2022-08-30T10:57:48.641Z,38.10
2022-08-30T11:03:05.680Z,37.92
2022-08-30T11:08:22.184Z,38.13
2022-08-30T11:13:30.002Z,37.88
2022-08-30T11:18:50.926Z,37.60
2022-08-30T11:24:21.115Z,37.26
2022-08-30T11:29:43.823Z,36.51
2022-08-30T11:34:46.555Z,36.48
2022-08-30T11:39:48.997Z,36.00
2022-08-30T11:44:50.943Z,35.59
2022-08-30T11:50:09.933Z,35.65
2022-08-30T11:55:34.411Z,35.27
2022-08-30T12:00:44.904Z,34.51
2022-08-30T12:06:07.271Z,34.90
2022-08-30T12:11:12.405Z,34.70
2022-08-30T12:16:22.093Z,34.64
2022-08-30T12:21:31.177Z,34.50
2022-08-30T12:26:44.926Z,34.40
2022-08-30T12:31:52.798Z,34.18
2022-08-30T12:37:05.564Z,34.05
2022-08-30T12:42:20.447Z,34.05
2022-08-30T12:47:28.543Z,34.10
2022-08-30T12:52:40.839Z,34.33
2022-08-30T12:58:10.128Z,33.99
2022-08-30T13:03:54.182Z,34.03
2022-08-30T13:08:56.137Z,34.48
2022-08-30T13:14:20.983Z,34.38
2022-08-30T13:19:36.054Z,34.69
2022-08-30T13:24:37.909Z,35.38
2022-08-30T13:29:40.602Z,35.63
2022-08-30T13:34:45.351Z,35.60
2022-08-30T13:39:47.292Z,35.74
2022-08-30T13:44:49.993Z,36.05
2022-08-30T13:49:51.880Z,36.26
2022-08-30T13:54:55.647Z,36.22
2022-08-30T13:59:57.742Z,36.16
2022-08-30T14:05:02.853Z,36.06
2022-08-30T14:15:28.738Z,36.14
2022-08-30T14:20:31.166Z,36.00
2022-08-30T14:25:33.391Z,35.93
2022-08-30T14:30:35.430Z,36.03
2022-08-30T14:35:37.378Z,35.74
2022-08-30T14:40:41.482Z,35.68
2022-08-30T14:45:43.775Z,35.53
2022-08-30T14:50:45.778Z,35.69
2022-08-30T14:55:47.659Z,35.70
2022-08-30T15:00:52.626Z,35.78
2022-08-30T15:05:54.543Z,35.85
2022-08-30T15:10:56.527Z,35.81
2022-08-30T15:15:58.473Z,35.66
2022-08-30T15:21:00.346Z,35.49
2022-08-30T15:26:02.721Z,35.56
2022-08-30T15:31:08.701Z,35.59
2022-08-30T15:36:12.648Z,35.46
2022-08-30T15:41:15.675Z,35.44
2022-08-30T15:46:29.937Z,35.23
2022-08-30T15:51:41.153Z,35.24
2022-08-30T15:56:44.908Z,35.42
2022-08-30T16:01:47.662Z,35.68
2022-08-30T16:06:50.097Z,35.66
2022-08-30T16:11:54.442Z,35.94
2022-08-30T16:16:57.118Z,36.00
2022-08-30T16:21:59.547Z,36.28
2022-08-30T16:27:01.561Z,36.58
2022-08-30T16:32:03.794Z,36.52
2022-08-30T16:37:05.672Z,36.73
2022-08-30T16:42:08.012Z,36.97
2022-08-30T16:47:13.332Z,36.97
2022-08-30T16:52:16.701Z,36.99
2022-08-30T16:57:20.154Z,37.12
2022-08-30T17:02:22.223Z,37.71
2022-08-30T17:07:24.274Z,37.71
2022-08-30T17:12:26.360Z,37.60
2022-08-30T17:17:28.277Z,37.94
2022-08-30T17:22:31.648Z,38.00
2022-08-30T17:27:33.703Z,38.17
2022-08-30T17:32:35.960Z,38.33
2022-08-30T17:37:38.140Z,38.42
2022-08-30T17:42:40.883Z,38.50
2022-08-30T17:47:43.746Z,38.87
2022-08-30T17:52:45.779Z,38.62
2022-08-30T17:57:47.838Z,38.91
2022-08-30T18:02:53.108Z,39.00
2022-08-30T18:07:55.470Z,39.03
2022-08-30T18:12:58.735Z,39.54
2022-08-30T18:18:00.745Z,39.63
2022-08-30T18:23:02.807Z,39.63
2022-08-30T18:28:07.047Z,39.84
2022-08-30T18:33:08.905Z,39.52
2022-08-30T18:38:11.047Z,39.91
2022-08-30T18:43:13.273Z,39.80
2022-08-30T18:48:16.034Z,39.68
2022-08-30T18:53:28.640Z,39.81
2022-08-30T18:58:31.210Z,39.83
2022-08-30T19:03:33.979Z,40.06
2022-08-30T19:08:36.514Z,39.73
2022-08-30T19:13:39.270Z,39.77
2022-08-30T19:18:41.585Z,40.12
2022-08-30T19:23:43.648Z,40.21
2022-08-30T19:28:45.506Z,40.52
2022-08-30T19:33:47.686Z,40.55
2022-08-30T19:38:49.585Z,40.68
2022-08-30T19:43:51.592Z,41.06
2022-08-30T19:48:53.462Z,41.21
2022-08-30T19:53:56.327Z,41.37
2022-08-30T19:59:00.653Z,41.72
2022-08-30T20:04:02.846Z,41.88
2022-08-30T20:09:05.539Z,42.05
2022-08-30T20:14:13.546Z,41.95
2022-08-30T20:19:18.561Z,41.97
2022-08-30T20:24:25.095Z,42.15
2022-08-30T20:29:28.558Z,42.28
2022-08-30T20:34:30.581Z,42.20
2022-08-30T20:39:32.459Z,42.42
2022-08-30T20:44:34.818Z,42.57
2022-08-30T20:49:37.224Z,42.62
2022-08-30T20:54:39.480Z,42.84
2022-08-30T20:59:41.337Z,43.09
2022-08-30T21:04:43.213Z,43.12
2022-08-30T21:09:45.787Z,43.31
2022-08-30T21:14:47.704Z,43.45
2022-08-30T21:19:49.666Z,43.78
2022-08-30T21:24:54.669Z,44.04
2022-08-30T21:29:57.463Z,44.38
2022-08-30T21:35:18.006Z,44.76
2022-08-30T21:40:20.231Z,44.79
2022-08-30T21:45:22.286Z,44.88
2022-08-30T21:50:24.152Z,45.04
2022-08-30T21:55:26.028Z,45.12
2022-08-30T22:00:27.929Z,45.45
2022-08-30T22:05:29.762Z,45.43
2022-08-30T22:10:33.380Z,45.48
2022-08-30T22:15:35.409Z,45.59
2022-08-30T22:20:39.880Z,45.68
2022-08-30T22:25:43.255Z,45.96
2022-08-30T22:30:45.570Z,46.23
2022-08-30T22:35:47.444Z,46.17
2022-08-30T22:40:54.164Z,46.83
2022-08-30T22:45:57.970Z,46.97
2022-08-30T22:50:59.845Z,47.07
2022-08-30T22:56:08.756Z,47.03
2022-08-30T23:01:22.821Z,46.82
2022-08-30T23:06:25.329Z,46.90
2022-08-30T23:11:27.531Z,46.91
2022-08-30T23:16:32.632Z,47.25
2022-08-30T23:21:34.717Z,47.50
2022-08-30T23:26:55.502Z,47.76
2022-08-30T23:32:16.355Z,48.11
2022-08-30T23:37:36.834Z,47.87
2022-08-30T23:42:57.015Z,48.47
2022-08-30T23:48:17.366Z,48.94
2022-08-30T23:53:37.779Z,49.14
2022-08-30T23:59:01.792Z,49.01
